createdAt,value
2018-05-27T00:01:39.459Z,16.40
2018-05-27T00:04:08.660Z,16.30
2018-05-27T00:06:37.848Z,16.30
2018-05-27T00:09:07.151Z,16.20
2018-05-27T00:11:36.352Z,16.10
2018-05-27T00:14:05.858Z,16.10
2018-05-27T00:16:35.037Z,16.00
2018-05-27T00:19:04.276Z,15.90
2018-05-27T00:21:33.526Z,15.80
2018-05-27T00:24:02.852Z,15.80
2018-05-27T00:26:32.153Z,15.80
2018-05-27T00:29:03.400Z,15.80
2018-05-27T00:31:32.625Z,15.80
2018-05-27T00:34:02.004Z,15.70
2018-05-27T00:36:31.192Z,15.70
2018-05-27T00:39:00.421Z,15.60
2018-05-27T00:41:29.676Z,15.60
2018-05-27T00:43:58.826Z,15.60
2018-05-27T00:46:28.004Z,15.70
2018-05-27T00:48:57.231Z,15.80
2018-05-27T00:51:26.577Z,15.80
2018-05-27T00:53:59.774Z,15.70
2018-05-27T00:56:29.079Z,15.70
2018-05-27T00:58:58.587Z,15.60
2018-05-27T01:01:27.885Z,15.60
2018-05-27T01:03:57.064Z,15.60
2018-05-27T01:06:26.391Z,15.50
2018-05-27T01:08:55.675Z,15.50
2018-05-27T01:11:25.090Z,15.40
2018-05-27T01:13:54.315Z,15.30
2018-05-27T01:16:23.502Z,15.20
2018-05-27T01:18:52.789Z,15.20
2018-05-27T01:21:21.928Z,15.10
2018-05-27T01:23:51.924Z,15.10
2018-05-27T01:26:21.100Z,15.10
2018-05-27T01:28:55.071Z,15.10
2018-05-27T01:31:25.020Z,15.10
2018-05-27T01:33:54.273Z,15.10
2018-05-27T01:36:24.146Z,15.10
2018-05-27T01:38:53.307Z,15.10
2018-05-27T01:41:23.228Z,15.10
2018-05-27T01:43:52.441Z,15.00
2018-05-27T01:46:21.743Z,15.00
2018-05-27T01:48:51.041Z,15.00
2018-05-27T01:51:20.244Z,14.90
2018-05-27T01:53:49.615Z,14.80
2018-05-27T01:56:19.492Z,14.80
2018-05-27T01:58:54.271Z,14.70
2018-05-27T02:01:23.491Z,14.80
2018-05-27T02:03:52.741Z,14.80
2018-05-27T02:06:22.702Z,14.90
2018-05-27T02:08:52.103Z,14.90
2018-05-27T02:11:21.432Z,14.90
2018-05-27T02:13:50.711Z,14.80
2018-05-27T02:16:19.918Z,14.70
2018-05-27T02:18:49.307Z,14.70
2018-05-27T02:21:18.481Z,14.60
2018-05-27T02:23:47.714Z,14.50
2018-05-27T02:26:16.853Z,14.40
2018-05-27T02:28:46.818Z,14.50
2018-05-27T02:31:16.034Z,14.50
2018-05-27T02:33:46.068Z,14.50
2018-05-27T02:36:16.060Z,14.50
2018-05-27T02:38:45.216Z,14.50
2018-05-27T02:41:14.535Z,14.50
2018-05-27T02:43:43.904Z,14.50
2018-05-27T02:46:13.873Z,14.40
2018-05-27T02:48:43.019Z,14.40
2018-05-27T02:51:12.876Z,14.30
2018-05-27T02:53:42.173Z,14.20
2018-05-27T02:56:11.469Z,14.20
2018-05-27T02:58:40.763Z,14.20
2018-05-27T03:01:11.091Z,14.20
2018-05-27T03:03:40.393Z,14.20
2018-05-27T03:06:09.695Z,14.20
2018-05-27T03:08:38.903Z,14.20
2018-05-27T03:11:07.905Z,14.20
2018-05-27T03:13:37.081Z,14.10
2018-05-27T03:16:06.433Z,14.00
2018-05-27T03:18:36.461Z,14.00
2018-05-27T03:21:06.527Z,14.00
2018-05-27T03:23:35.708Z,14.00
2018-05-27T03:26:04.914Z,14.00
2018-05-27T03:28:34.323Z,14.00
2018-05-27T03:31:03.511Z,14.00
2018-05-27T03:33:32.838Z,14.10
2018-05-27T03:36:02.034Z,14.10
2018-05-27T03:38:31.304Z,14.10
2018-05-27T03:41:00.536Z,14.20
2018-05-27T03:43:29.816Z,14.30
2018-05-27T03:45:58.981Z,14.30
2018-05-27T03:48:28.310Z,14.40
2018-05-27T03:50:57.493Z,14.50
2018-05-27T03:53:26.696Z,14.50
2018-05-27T03:55:55.945Z,14.60
2018-05-27T03:58:25.112Z,14.60
2018-05-27T04:00:55.086Z,14.70
2018-05-27T04:03:24.301Z,14.80
2018-05-27T04:06:05.315Z,14.80
2018-05-27T04:08:35.412Z,14.80
2018-05-27T04:11:04.593Z,14.90
2018-05-27T04:13:33.914Z,14.90
2018-05-27T04:19:02.930Z,15.00
2018-05-27T04:21:32.223Z,15.20
2018-05-27T04:24:01.419Z,15.30
2018-05-27T04:26:38.616Z,15.50
2018-05-27T04:29:08.585Z,15.70
2018-05-27T04:31:37.885Z,15.70
2018-05-27T04:34:07.224Z,15.80
2018-05-27T04:36:36.559Z,15.90
2018-05-27T04:39:05.831Z,16.30
2018-05-27T04:41:35.882Z,17.30
2018-05-27T04:44:06.058Z,17.80
2018-05-27T04:46:36.169Z,17.70
2018-05-27T04:49:05.502Z,18.30
2018-05-27T04:51:34.782Z,19.00
2018-05-27T04:54:04.140Z,19.50
2018-05-27T04:56:33.436Z,20.10
2018-05-27T04:59:02.728Z,20.40
2018-05-27T05:01:32.815Z,20.90
2018-05-27T05:04:02.071Z,20.90
2018-05-27T05:06:31.358Z,21.10
2018-05-27T05:09:00.687Z,21.20
2018-05-27T05:11:31.471Z,21.90
2018-05-27T05:14:00.812Z,21.90
2018-05-27T05:16:30.191Z,22.20
2018-05-27T05:19:00.062Z,22.50
2018-05-27T05:21:29.455Z,22.70
2018-05-27T05:23:58.721Z,22.70
2018-05-27T05:26:28.363Z,22.90
2018-05-27T05:28:57.621Z,23.00
2018-05-27T05:31:27.623Z,23.10
2018-05-27T05:33:56.855Z,23.00
2018-05-27T05:36:26.889Z,23.00
2018-05-27T05:38:56.197Z,23.00
2018-05-27T05:41:26.323Z,23.00
2018-05-27T05:43:55.580Z,23.00
2018-05-27T05:46:24.934Z,23.10
2018-05-27T05:48:54.218Z,23.20
2018-05-27T05:51:23.486Z,23.30
2018-05-27T05:53:52.689Z,23.40
2018-05-27T05:56:21.964Z,23.60
2018-05-27T05:58:52.694Z,23.90
2018-05-27T06:01:22.520Z,24.00
2018-05-27T06:03:51.574Z,24.00
2018-05-27T06:06:20.509Z,24.00
2018-05-27T06:08:49.482Z,24.00
2018-05-27T06:11:18.658Z,23.80
2018-05-27T06:13:48.045Z,23.80
2018-05-27T06:16:21.800Z,23.80
2018-05-27T06:18:51.006Z,23.90
2018-05-27T06:21:20.165Z,24.00
2018-05-27T06:23:49.381Z,23.80
2018-05-27T06:26:19.362Z,23.50
2018-05-27T06:28:50.479Z,23.50
2018-05-27T06:31:19.691Z,23.40
2018-05-27T06:33:48.995Z,23.40
2018-05-27T06:36:18.297Z,23.50
2018-05-27T06:38:47.321Z,23.60
2018-05-27T06:41:16.428Z,23.70
2018-05-27T06:43:45.631Z,23.90
2018-05-27T06:46:14.843Z,24.00
2018-05-27T06:48:45.004Z,24.40
2018-05-27T06:51:14.212Z,24.40
2018-05-27T06:53:43.406Z,24.60
2018-05-27T06:56:12.704Z,24.90
2018-05-27T06:58:41.883Z,25.30
2018-05-27T07:01:11.105Z,25.40
2018-05-27T07:03:40.306Z,25.70
2018-05-27T07:06:10.193Z,26.50
2018-05-27T07:08:39.464Z,26.40
2018-05-27T07:11:09.445Z,27.20
2018-05-27T07:13:38.814Z,27.10
2018-05-27T07:16:15.659Z,27.50
2018-05-27T07:21:46.875Z,28.40
2018-05-27T07:24:16.203Z,28.40
2018-05-27T07:26:45.528Z,28.60
2018-05-27T07:29:14.855Z,28.70
2018-05-27T07:31:51.444Z,28.70
2018-05-27T07:34:24.649Z,28.70
2018-05-27T07:36:53.871Z,28.70
2018-05-27T07:39:23.109Z,28.50
2018-05-27T07:41:53.175Z,28.10
2018-05-27T07:44:23.254Z,27.90
2018-05-27T07:46:52.648Z,27.90
2018-05-27T07:49:25.383Z,27.80
2018-05-27T07:51:55.431Z,28.00
2018-05-27T07:54:25.411Z,28.30
2018-05-27T07:56:54.584Z,28.20
2018-05-27T07:59:23.879Z,28.50
2018-05-27T08:01:53.052Z,28.50
2018-05-27T08:04:32.633Z,28.20
2018-05-27T08:07:01.928Z,28.10
2018-05-27T08:09:32.799Z,27.90
2018-05-27T08:12:01.994Z,27.90
2018-05-27T08:14:31.470Z,27.60
2018-05-27T08:17:01.131Z,27.30
2018-05-27T08:19:31.395Z,27.40
2018-05-27T08:22:00.846Z,27.40
2018-05-27T08:24:30.207Z,27.40
2018-05-27T08:26:59.420Z,27.40
2018-05-27T08:29:40.503Z,27.20
2018-05-27T08:32:10.591Z,26.90
2018-05-27T08:34:39.800Z,26.90
2018-05-27T08:37:09.086Z,27.00
2018-05-27T08:39:38.313Z,26.80
2018-05-27T08:42:07.613Z,26.70
2018-05-27T08:44:37.643Z,27.10
2018-05-27T08:47:06.892Z,27.10
2018-05-27T08:49:46.257Z,27.30
2018-05-27T08:52:16.311Z,27.70
2018-05-27T08:54:45.597Z,27.70
2018-05-27T08:57:15.402Z,28.20
2018-05-27T08:59:44.319Z,28.20
2018-05-27T09:02:14.325Z,28.30
2018-05-27T09:04:44.351Z,28.20
2018-05-27T09:07:13.600Z,28.20
2018-05-27T09:09:42.851Z,27.90
2018-05-27T09:12:12.840Z,27.50
2018-05-27T09:14:52.531Z,27.60
2018-05-27T09:17:21.767Z,27.60
2018-05-27T09:19:51.726Z,27.90
2018-05-27T09:22:21.055Z,27.90
2018-05-27T09:24:50.281Z,28.10
2018-05-27T09:27:19.533Z,28.30
2018-05-27T09:29:48.772Z,28.40
2018-05-27T09:32:18.097Z,28.50
2018-05-27T09:34:47.306Z,28.70
2018-05-27T09:37:40.945Z,28.80
2018-05-27T09:40:10.084Z,28.90
2018-05-27T09:42:39.300Z,29.00
2018-05-27T09:45:08.504Z,29.10
2018-05-27T09:47:37.687Z,29.20
2018-05-27T09:50:06.661Z,29.30
2018-05-27T09:52:35.622Z,29.40
2018-05-27T09:55:04.843Z,29.50
2018-05-27T09:57:34.807Z,29.70
2018-05-27T10:00:04.984Z,29.70
2018-05-27T10:02:34.224Z,29.80
2018-05-27T10:05:03.472Z,29.90
2018-05-27T10:07:33.379Z,30.00
2018-05-27T10:10:02.581Z,30.00
2018-05-27T10:12:31.738Z,30.00
2018-05-27T10:15:12.880Z,29.90
2018-05-27T10:17:42.136Z,29.60
2018-05-27T10:20:12.092Z,29.40
2018-05-27T10:22:42.065Z,29.50
2018-05-27T10:25:11.277Z,29.50
2018-05-27T10:27:40.481Z,29.60
2018-05-27T10:30:09.672Z,29.40
2018-05-27T10:32:38.803Z,29.00
2018-05-27T10:35:08.829Z,29.40
2018-05-27T10:37:38.046Z,29.40
2018-05-27T10:40:07.222Z,29.80
2018-05-27T10:45:54.407Z,30.00
2018-05-27T10:48:23.428Z,30.10
2018-05-27T10:50:52.617Z,30.10
2018-05-27T10:53:21.794Z,30.30
2018-05-27T10:55:50.991Z,30.40
2018-05-27T10:58:20.242Z,30.60
2018-05-27T11:00:49.415Z,30.70
2018-05-27T11:03:19.421Z,30.90
2018-05-27T11:05:48.686Z,30.90
2018-05-27T11:08:17.801Z,31.00
2018-05-27T11:10:46.945Z,31.00
2018-05-27T11:13:16.147Z,31.00
2018-05-27T11:15:46.157Z,31.00
2018-05-27T11:18:15.913Z,30.90
2018-05-27T11:20:45.080Z,31.00
2018-05-27T11:23:14.218Z,30.80
2018-05-27T11:28:57.936Z,30.10
2018-05-27T11:31:27.859Z,30.10
2018-05-27T11:33:57.819Z,30.00
2018-05-27T11:36:27.060Z,30.00
2018-05-27T11:38:56.201Z,30.20
2018-05-27T11:41:25.391Z,30.60
2018-05-27T11:43:54.552Z,31.00
2018-05-27T11:55:34.334Z,32.10
2018-05-27T11:58:03.545Z,32.40
2018-05-27T12:00:32.777Z,32.40
2018-05-27T12:03:01.959Z,32.50
2018-05-27T12:05:31.101Z,32.60
2018-05-27T12:08:00.305Z,32.50
2018-05-27T12:10:29.488Z,32.40
2018-05-27T12:12:58.725Z,32.20
2018-05-27T12:15:27.841Z,32.00
2018-05-27T12:17:57.755Z,30.80
2018-05-27T12:20:33.617Z,30.80
2018-05-27T12:23:03.504Z,31.00
2018-05-27T12:25:32.772Z,31.00
2018-05-27T12:28:02.006Z,31.00
2018-05-27T12:30:31.250Z,30.90
2018-05-27T12:33:00.405Z,30.90
2018-05-27T12:35:29.878Z,31.10
2018-05-27T12:37:59.090Z,31.30
2018-05-27T12:40:28.247Z,31.60
2018-05-27T12:42:57.403Z,31.70
2018-05-27T12:45:26.675Z,31.70
2018-05-27T12:47:55.867Z,31.70
2018-05-27T12:50:25.044Z,31.70
2018-05-27T12:52:54.135Z,31.80
2018-05-27T12:55:26.934Z,31.90
2018-05-27T12:58:03.594Z,31.70
2018-05-27T13:00:37.933Z,31.60
2018-05-27T13:03:08.664Z,31.50
2018-05-27T13:05:37.887Z,31.50
2018-05-27T13:08:07.047Z,31.00
2018-05-27T13:10:36.218Z,30.40
2018-05-27T13:13:06.181Z,30.10
2018-05-27T13:15:36.222Z,30.00
2018-05-27T13:18:05.438Z,30.00
2018-05-27T13:20:35.416Z,30.30
2018-05-27T13:23:04.607Z,30.30
2018-05-27T13:25:39.125Z,30.60
2018-05-27T13:31:32.024Z,31.30
2018-05-27T13:34:01.152Z,31.50
2018-05-27T13:36:31.122Z,30.40
2018-05-27T13:39:00.337Z,30.40
2018-05-27T13:41:29.597Z,29.80
2018-05-27T13:43:58.783Z,29.30
2018-05-27T13:46:32.844Z,29.20
2018-05-27T13:49:02.768Z,29.20
2018-05-27T13:51:32.799Z,29.30
2018-05-27T13:54:02.770Z,29.40
2018-05-27T13:56:32.083Z,29.40
2018-05-27T13:59:03.119Z,30.30
2018-05-27T14:01:37.318Z,30.20
2018-05-27T14:04:06.581Z,30.20
2018-05-27T14:07:00.317Z,29.80
2018-05-27T14:12:28.173Z,29.80
2018-05-27T14:14:57.387Z,29.80
2018-05-27T14:17:26.596Z,29.80
2018-05-27T14:19:55.882Z,29.70
2018-05-27T14:22:25.080Z,29.70
2018-05-27T14:24:54.256Z,30.00
2018-05-27T14:27:44.949Z,30.30
2018-05-27T14:30:14.157Z,30.60
2018-05-27T14:32:43.420Z,31.00
2018-05-27T14:35:12.681Z,31.30
2018-05-27T14:37:41.979Z,31.70
2018-05-27T14:40:11.168Z,32.10
2018-05-27T14:42:40.348Z,32.60
2018-05-27T14:45:09.581Z,33.00
2018-05-27T14:47:38.879Z,33.40
2018-05-27T14:50:08.059Z,33.70
2018-05-27T14:52:37.248Z,34.10
2018-05-27T14:55:06.419Z,34.20
2018-05-27T14:57:36.442Z,34.00
2018-05-27T15:00:10.278Z,34.00
2018-05-27T15:02:39.477Z,33.80
2018-05-27T15:05:08.688Z,33.60
2018-05-27T15:07:37.883Z,33.50
2018-05-27T15:10:07.057Z,33.50
2018-05-27T15:12:36.368Z,33.20
2018-05-27T15:15:07.557Z,32.60
2018-05-27T15:17:36.704Z,32.40
2018-05-27T15:20:05.944Z,32.30
2018-05-27T15:22:35.091Z,32.20
2018-05-27T15:25:04.235Z,32.00
2018-05-27T15:27:33.456Z,31.90
2018-05-27T15:30:03.612Z,31.70
2018-05-27T15:32:57.542Z,31.70
2018-05-27T15:35:27.490Z,31.60
2018-05-27T15:37:56.660Z,31.50
2018-05-27T15:40:25.873Z,31.60
2018-05-27T15:42:59.927Z,31.50
2018-05-27T15:45:29.191Z,31.60
2018-05-27T15:47:59.134Z,31.70
2018-05-27T15:50:28.297Z,31.70
2018-05-27T15:53:03.287Z,31.60
2018-05-27T15:55:32.486Z,31.50
2018-05-27T15:58:01.651Z,31.40
2018-05-27T16:00:31.774Z,31.40
2018-05-27T16:03:00.967Z,31.60
2018-05-27T16:05:34.982Z,31.70
2018-05-27T16:08:04.163Z,31.60
2018-05-27T16:10:33.373Z,31.50
2018-05-27T16:13:02.552Z,31.30
2018-05-27T16:15:32.529Z,31.30
2018-05-27T16:18:01.835Z,31.30
2018-05-27T16:20:31.038Z,31.20
2018-05-27T16:23:00.191Z,30.80
2018-05-27T16:25:29.448Z,30.60
2018-05-27T16:27:58.591Z,30.50
2018-05-27T16:30:46.775Z,30.70
2018-05-27T16:33:17.588Z,30.90
2018-05-27T16:35:46.779Z,30.80
2018-05-27T16:38:16.012Z,31.10
2018-05-27T16:40:45.325Z,31.20
2018-05-27T16:43:15.329Z,31.50
2018-05-27T16:45:53.827Z,31.40
2018-05-27T16:48:23.024Z,31.40
2018-05-27T16:50:52.226Z,31.20
2018-05-27T16:53:21.408Z,31.10
2018-05-27T16:55:50.637Z,30.90
2018-05-27T16:58:19.863Z,30.70
2018-05-27T17:00:49.077Z,30.70
2018-05-27T17:03:20.048Z,30.60
2018-05-27T17:05:49.222Z,30.40
2018-05-27T17:08:18.428Z,30.30
2018-05-27T17:13:44.481Z,29.70
2018-05-27T17:16:13.644Z,29.40
2018-05-27T17:18:42.956Z,29.30
2018-05-27T17:21:12.147Z,29.20
2018-05-27T17:23:41.417Z,29.20
2018-05-27T17:26:11.409Z,29.30
2018-05-27T17:28:40.660Z,29.30
2018-05-27T17:31:09.893Z,29.30
2018-05-27T17:33:39.065Z,29.40
2018-05-27T17:36:08.252Z,29.40
2018-05-27T17:38:37.230Z,29.40
2018-05-27T17:47:23.992Z,29.40
2018-05-27T17:49:53.224Z,29.10
2018-05-27T17:52:22.404Z,28.50
2018-05-27T17:54:51.555Z,28.10
2018-05-27T17:57:20.808Z,27.80
2018-05-27T17:59:50.036Z,27.60
2018-05-27T18:02:19.248Z,27.50
2018-05-27T18:04:48.607Z,27.30
2018-05-27T18:07:17.833Z,27.20
2018-05-27T18:09:51.510Z,27.00
2018-05-27T18:12:20.641Z,26.90
2018-05-27T18:14:50.608Z,26.60
2018-05-27T18:17:19.775Z,26.60
2018-05-27T18:19:49.723Z,26.30
2018-05-27T18:22:25.060Z,26.30
2018-05-27T18:24:54.207Z,26.10
2018-05-27T18:27:23.352Z,25.90
2018-05-27T18:29:52.532Z,25.70
2018-05-27T18:32:22.464Z,25.30
2018-05-27T18:34:51.750Z,25.30
2018-05-27T18:37:21.737Z,24.90
2018-05-27T18:39:50.925Z,24.90
2018-05-27T18:45:46.859Z,24.60
2018-05-27T18:48:20.056Z,24.50
2018-05-27T18:50:49.247Z,24.40
2018-05-27T18:53:18.537Z,24.30
2018-05-27T18:55:47.749Z,24.20
2018-05-27T18:58:16.982Z,24.20
2018-05-27T19:00:46.994Z,24.00
2018-05-27T19:03:21.108Z,23.90
2018-05-27T19:05:50.297Z,23.90
2018-05-27T19:08:19.528Z,23.80
2018-05-27T19:10:48.750Z,23.80
2018-05-27T19:13:17.933Z,23.70
2018-05-27T19:15:47.130Z,23.60
2018-05-27T19:18:16.347Z,23.50
2018-05-27T19:20:45.539Z,23.30
2018-05-27T19:23:14.705Z,23.30
2018-05-27T19:25:43.846Z,23.20
2018-05-27T19:28:13.155Z,23.10
2018-05-27T19:30:42.330Z,23.10
2018-05-27T19:33:11.460Z,23.00
2018-05-27T19:35:40.604Z,22.90
2018-05-27T19:38:09.834Z,22.80
2018-05-27T19:40:39.005Z,22.70
2018-05-27T19:43:09.143Z,22.50
2018-05-27T19:45:38.331Z,22.30
2018-05-27T19:48:07.330Z,22.10
2018-05-27T19:50:36.537Z,22.00
2018-05-27T19:53:05.731Z,21.80
2018-05-27T19:55:34.936Z,21.80
2018-05-27T19:58:05.135Z,21.70
2018-05-27T20:00:34.262Z,21.70
2018-05-27T20:03:03.615Z,21.60
2018-05-27T20:05:32.790Z,21.60
2018-05-27T20:08:02.740Z,21.50
2018-05-27T20:10:31.956Z,21.50
2018-05-27T20:13:01.146Z,21.50
2018-05-27T20:15:30.353Z,21.50
2018-05-27T20:17:59.672Z,21.60
2018-05-27T20:20:28.798Z,21.70
2018-05-27T20:22:58.758Z,21.70
2018-05-27T20:25:27.952Z,21.70
2018-05-27T20:27:57.149Z,21.60
2018-05-27T20:30:26.369Z,21.50
2018-05-27T20:32:55.619Z,21.40
2018-05-27T20:35:25.552Z,21.20
2018-05-27T20:40:53.751Z,21.10
2018-05-27T20:43:22.752Z,21.00
2018-05-27T20:45:52.006Z,20.90
2018-05-27T20:48:21.161Z,20.90
2018-05-27T20:50:50.339Z,20.90
2018-05-27T20:53:19.564Z,20.90
2018-05-27T20:55:48.753Z,21.00
2018-05-27T20:58:17.920Z,20.90
2018-05-27T21:00:47.143Z,20.90
2018-05-27T21:03:19.419Z,20.90
2018-05-27T21:05:48.648Z,20.80
2018-05-27T21:08:17.827Z,20.80
2018-05-27T21:10:47.014Z,20.80
2018-05-27T21:13:20.565Z,20.80
2018-05-27T21:15:49.797Z,20.80
2018-05-27T21:18:20.518Z,20.60
2018-05-27T21:20:49.823Z,20.60
2018-05-27T21:23:19.072Z,20.60
2018-05-27T21:25:48.270Z,20.60
2018-05-27T21:28:17.537Z,20.60
2018-05-27T21:31:01.691Z,20.50
2018-05-27T21:33:30.872Z,20.50
2018-05-27T21:36:00.070Z,20.40
2018-05-27T21:38:29.273Z,20.40
2018-05-27T21:40:59.203Z,20.40
2018-05-27T21:43:34.573Z,20.40
2018-05-27T21:46:03.777Z,20.40
2018-05-27T21:48:32.942Z,20.20
2018-05-27T21:51:02.143Z,20.10
2018-05-27T21:53:32.472Z,20.10
2018-05-27T21:56:01.634Z,20.10
2018-05-27T21:58:30.842Z,20.10
2018-05-27T22:01:00.108Z,20.00
2018-05-27T22:03:30.076Z,19.80
2018-05-27T22:05:59.353Z,19.80
2018-05-27T22:08:28.599Z,19.70
2018-05-27T22:10:57.868Z,19.70
2018-05-27T22:13:27.066Z,19.60
2018-05-27T22:15:56.288Z,19.50
2018-05-27T22:18:25.486Z,19.50
2018-05-27T22:20:54.783Z,19.40
2018-05-27T22:23:23.963Z,19.40
2018-05-27T22:25:53.279Z,19.30
2018-05-27T22:28:22.256Z,19.20
2018-05-27T22:30:51.203Z,19.20
2018-05-27T22:33:26.834Z,19.10
2018-05-27T22:35:55.972Z,19.10
2018-05-27T22:38:25.126Z,19.10
2018-05-27T22:40:54.264Z,19.20
2018-05-27T22:43:23.456Z,19.30
2018-05-27T22:45:52.707Z,19.30
2018-05-27T22:48:21.867Z,19.30
2018-05-27T22:50:51.084Z,19.20
2018-05-27T22:53:20.267Z,19.20
2018-05-27T22:55:49.452Z,19.00
2018-05-27T22:58:18.666Z,18.90
2018-05-27T23:00:47.863Z,18.80
2018-05-27T23:03:17.025Z,18.70
2018-05-27T23:05:46.294Z,18.60
2018-05-27T23:08:16.264Z,18.50
2018-05-27T23:10:45.565Z,18.50
2018-05-27T23:13:15.003Z,18.40
2018-05-27T23:15:44.172Z,18.40
2018-05-27T23:18:13.511Z,18.30
2018-05-27T23:20:42.735Z,18.30
2018-05-27T23:23:12.832Z,18.30
2018-05-27T23:25:42.826Z,18.40
2018-05-27T23:28:12.032Z,18.30
2018-05-27T23:30:41.286Z,18.40
2018-05-27T23:33:16.204Z,18.40
2018-05-27T23:35:45.412Z,18.40
2018-05-27T23:38:14.776Z,18.30
2018-05-27T23:40:44.728Z,18.20
2018-05-27T23:43:14.046Z,18.20
2018-05-27T23:45:43.228Z,18.10
2018-05-27T23:48:14.296Z,17.90
2018-05-27T23:50:43.560Z,17.90
2018-05-27T23:53:12.787Z,17.80
2018-05-27T23:55:42.067Z,17.70
2018-05-27T23:58:11.293Z,17.70
